Reger, Missouri
Current Conditions -  °F | °C
As of 4:55 AM on Monday 22 Dec 2014 (Local Time) from KIRK Reporting Station
Overcast Overcast  
Wind Chill: 31°   Ceiling: 2700
Heat Index: 39°   Visibility: 10mi
Dew Point: 36°   Wind: 13mph
Humidity: 89%   Direction: 140°SE
Pressure: 29.72"   Gusts: NA
Location:  40.1663°N, 93.1629°W
Report Text: KIRK 221055Z AUTO 14011KT 10SM OVC027 04/02 A2972 RMK AO2 SLP073 T00390022
Loading
Personal Weather Stations






























Interactive Weather Map New forecast layout! Learn more

10-Day Weather Forecast

Advertisements
Track Severe Weather on mobile